Time;durP1;ratioP1;P1;durP2;ratioP2;P2;SDS_P1;SDS_P2;PMS_P1;PMS_P2;Temp;Humidity;BMP_temperature;BMP_pressure;BME280_temperature;BME280_humidity;BME280_pressure;Samples;Min_cycle;Max_cycle;Signal;HPM_P1;HPM_P2
2022/02/11 00:02:17;;;;;;;11.27;6.03;;;;;;;3.69;88.44;95944.06;5052539;28;20661;-79
2022/02/11 00:07:31;;;;;;;11.43;5.57;;;;;;;3.69;87.69;95946.63;5051778;28;20543;-78
2022/02/11 00:09:57;;;;;;;11.20;6.20;;;;;;;3.57;88.04;95942.28;5051490;28;20203;-79
2022/02/11 00:12:23;;;;;;;7.13;5.70;;;;;;;3.56;88.45;95946.59;5034659;28;20734;-79
2022/02/11 00:15:05;;;;;;;8.23;5.40;;;;;;;3.53;88.34;95945.94;5051325;28;20201;-78
2022/02/11 00:17:31;;;;;;;9.23;5.80;;;;;;;3.51;87.74;95947.78;5051515;28;20193;-78
2022/02/11 00:19:56;;;;;;;7.80;5.50;;;;;;;3.51;86.00;95942.63;5034669;28;20198;-79
2022/02/11 00:22:22;;;;;;;6.93;5.83;;;;;;;3.51;85.90;95934.94;5050710;28;20174;-79
2022/02/11 00:24:47;;;;;;;10.53;5.70;;;;;;;3.45;85.18;95928.47;5051179;28;20174;-78
2022/02/11 00:32:39;;;;;;;9.07;5.53;;;;;;;3.39;85.32;95923.69;5051296;28;20225;-80
2022/02/11 00:35:17;;;;;;;8.30;5.73;;;;;;;3.35;84.42;95930.75;5051616;28;20290;-78
2022/02/11 00:37:42;;;;;;;9.33;5.73;;;;;;;3.32;83.94;95930.13;5052286;28;20188;-78
2022/02/11 00:40:24;;;;;;;7.57;5.57;;;;;;;3.33;83.34;95930.00;5051521;28;20221;-79
2022/02/11 01:02:09;;;;;;;7.97;5.90;;;;;;;3.22;83.57;95923.91;5050567;28;20182;-78
2022/02/11 01:04:22;;;;;;;6.83;5.57;;;;;;;3.12;83.69;95927.03;5055496;28;20260;-79
2022/02/11 01:06:48;;;;;;;10.13;5.67;;;;;;;3.16;84.12;95931.97;5055499;28;20210;-79
2022/02/11 01:09:14;;;;;;;6.80;4.77;;;;;;;3.18;83.18;95925.00;5056760;28;20200;-79
2022/02/11 01:12:02;;;;;;;5.43;4.53;;;;;;;3.13;83.07;95928.69;5054655;28;20270;-79
2022/02/11 01:14:36;;;;;;;9.30;5.07;;;;;;;3.17;82.93;95913.91;5041453;28;20194;-79
2022/02/11 01:17:17;;;;;;;7.00;5.37;;;;;;;3.12;82.92;95916.75;5055587;28;20213;-79
2022/02/11 01:27:43;;;;;;;7.33;4.33;;;;;;;3.18;82.75;95925.00;5050068;28;20668;-79
2022/02/11 01:30:40;;;;;;;6.80;4.60;;;;;;;3.16;83.03;95917.38;5020099;28;20195;-79
2022/02/11 01:35:55;;;;;;;5.90;4.33;;;;;;;3.12;83.77;95921.06;5034748;28;20286;-79
2022/02/11 01:51:33;;;;;;;6.47;4.87;;;;;;;3.05;87.53;95920.59;5035045;28;20284;-80
2022/02/11 01:54:13;;;;;;;8.47;4.73;;;;;;;3.12;87.40;95916.75;5034688;28;20197;-79
2022/02/11 01:56:55;;;;;;;6.50;5.10;;;;;;;3.12;87.86;95921.06;5034961;28;20198;-79
2022/02/11 02:13:08;;;;;;;7.87;5.30;;;;;;;2.96;93.21;95916.03;5033185;28;20173;-78
2022/02/11 02:16:18;;;;;;;7.03;4.83;;;;;;;2.96;94.01;95920.34;5036665;28;20206;-77
2022/02/11 02:24:28;;;;;;;9.07;4.73;;;;;;;2.78;96.73;95922.28;5034019;28;20182;-79
2022/02/11 02:27:13;;;;;;;6.70;5.10;;;;;;;2.71;97.11;95920.97;5035668;28;20316;-79
2022/02/11 02:35:34;;;;;;;5.57;4.30;;;;;;;2.45;100.00;95940.44;5033630;28;20209;-79
2022/02/11 02:38:31;;;;;;;6.87;4.90;;;;;;;2.50;100.00;95930.75;5034123;28;20577;-79
2022/02/11 03:00:08;;;;;;;5.27;3.47;;;;;;;2.09;100.00;95951.88;5033036;28;20210;-79
2022/02/11 03:49:17;;;;;;;0.87;0.80;;;;;;;-0.17;100.00;96080.22;5032780;28;20210;-79
2022/02/11 03:54:53;;;;;;;1.00;1.00;;;;;;;-0.29;100.00;96091.78;5032881;28;20201;-78
2022/02/11 03:57:39;;;;;;;1.47;1.37;;;;;;;-0.41;100.00;96100.00;5032686;28;20184;-79
2022/02/11 04:56:55;;;;;;;4.63;3.43;;;;;;;-0.05;100.00;96199.66;5030964;28;20192;-79
2022/02/11 04:59:39;;;;;;;4.57;3.63;;;;;;;-0.02;100.00;96205.44;5030783;28;20178;-79
2022/02/11 05:02:06;;;;;;;6.03;4.37;;;;;;;-0.02;100.00;96210.53;5046635;28;20213;-79
2022/02/11 05:04:33;;;;;;;7.03;4.13;;;;;;;0.02;100.00;96218.91;5031899;28;20684;-79
2022/02/11 05:06:59;;;;;;;5.73;4.20;;;;;;;0.07;100.00;96222.09;5032092;28;20590;-78
2022/02/11 05:09:25;;;;;;;4.23;3.77;;;;;;;0.08;100.00;96230.56;5032168;28;20177;-78
2022/02/11 05:11:50;;;;;;;4.47;3.47;;;;;;;0.11;100.00;96236.38;5035449;28;20207;-78
2022/02/11 05:14:16;;;;;;;3.90;3.53;;;;;;;0.12;100.00;96235.50;5038435;28;20205;-78
2022/02/11 05:16:41;;;;;;;5.20;3.43;;;;;;;0.10;100.00;96232.19;5035343;28;20449;-78
2022/02/11 05:19:07;;;;;;;4.60;3.60;;;;;;;0.10;100.00;96239.03;5038162;28;20185;-78
2022/02/11 05:21:32;;;;;;;5.60;3.53;;;;;;;0.11;100.00;96233.00;5037438;28;20250;-79
2022/02/11 05:23:57;;;;;;;9.73;5.00;;;;;;;0.23;100.00;96238.38;5038792;28;20174;-78
2022/02/11 05:26:22;;;;;;;6.20;4.50;;;;;;;0.18;100.00;96248.00;5037497;28;20196;-78
2022/02/11 05:28:48;;;;;;;9.30;5.83;;;;;;;0.17;100.00;96246.31;5038570;28;20204;-79
2022/02/11 05:31:13;;;;;;;6.97;3.83;;;;;;;0.13;100.00;96247.38;5035637;28;20673;-78
2022/02/11 05:33:38;;;;;;;5.37;3.40;;;;;;;0.11;100.00;96250.88;5036053;28;20218;-78
2022/02/11 05:36:04;;;;;;;5.97;3.90;;;;;;;0.11;100.00;96259.38;5020175;28;20189;-77
2022/02/11 05:38:29;;;;;;;4.23;3.67;;;;;;;0.08;100.00;96256.09;5036750;28;20292;-79
2022/02/11 05:40:55;;;;;;;6.13;3.93;;;;;;;0.16;100.00;96254.06;5046709;28;20282;-78
2022/02/11 05:43:20;;;;;;;5.03;4.30;;;;;;;0.11;100.00;96256.00;5018948;28;20678;-79
2022/02/11 05:45:45;;;;;;;3.83;3.10;;;;;;;0.16;100.00;96261.72;5040658;28;20170;-79
2022/02/11 05:48:11;;;;;;;5.93;3.20;;;;;;;0.15;100.00;96262.63;5022985;28;20212;-79
2022/02/11 05:50:36;;;;;;;5.20;3.33;;;;;;;0.14;100.00;96286.50;5038172;28;20210;-78
2022/02/11 05:53:03;;;;;;;5.00;2.80;;;;;;;0.18;100.00;96278.66;5036822;28;20186;-81
2022/02/11 05:55:28;;;;;;;3.93;2.53;;;;;;;0.10;100.00;96285.81;5037612;28;20295;-78
2022/02/11 05:57:53;;;;;;;3.20;2.90;;;;;;;0.07;100.00;96285.94;5037485;28;20216;-79
2022/02/11 06:00:19;;;;;;;4.70;2.70;;;;;;;0.06;100.00;96302.16;5038694;28;20194;-77
2022/02/11 06:02:44;;;;;;;5.13;3.87;;;;;;;0.02;100.00;96298.09;5038182;28;20173;-77
2022/02/11 06:05:09;;;;;;;3.20;2.90;;;;;;;0.08;100.00;96310.56;5038675;28;20184;-80
2022/02/11 06:07:35;;;;;;;5.37;3.13;;;;;;;0.05;100.00;96317.53;5038258;28;20671;-77
2022/02/11 06:10:00;;;;;;;3.67;2.67;;;;;;;0.09;100.00;96313.94;5036918;28;20216;-77
2022/02/11 06:12:26;;;;;;;3.33;3.03;;;;;;;0.09;100.00;96309.69;5035994;28;20182;-80
2022/02/11 06:14:54;;;;;;;3.37;3.03;;;;;;;0.07;100.00;96318.31;5034463;28;20210;-78
2022/02/11 06:17:23;;;;;;;4.13;3.03;;;;;;;0.07;100.00;96325.97;5037641;28;20249;-79
2022/02/11 06:19:48;;;;;;;5.87;3.57;;;;;;;0.09;100.00;96324.16;5033937;28;20659;-78
2022/02/11 06:22:14;;;;;;;5.30;4.53;;;;;;;0.05;100.00;96322.66;5040358;28;20263;-78
2022/02/11 06:24:40;;;;;;;11.10;8.50;;;;;;;0.07;100.00;96331.91;5033414;28;20278;-78
2022/02/11 06:27:05;;;;;;;5.20;4.63;;;;;;;0.01;100.00;96339.84;5036150;28;20268;-78
2022/02/11 06:29:30;;;;;;;7.27;6.57;;;;;;;0.05;100.00;96348.19;5052946;28;20212;-78
2022/02/11 06:31:55;;;;;;;9.57;7.60;;;;;;;0.12;100.00;96355.53;5052804;28;20616;-79
2022/02/11 06:34:21;;;;;;;7.77;5.70;;;;;;;0.12;100.00;96352.16;5054427;28;20232;-78
2022/02/11 06:36:46;;;;;;;6.53;5.13;;;;;;;0.03;100.00;96365.31;5043093;28;20195;-78
2022/02/11 06:39:11;;;;;;;6.70;5.03;;;;;;;-0.04;100.00;96370.66;5053161;28;20611;-79
2022/02/11 06:41:37;;;;;;;9.07;7.47;;;;;;;-0.08;100.00;96363.19;5052480;28;20213;-79
2022/02/11 06:44:02;;;;;;;8.17;6.80;;;;;;;-0.04;100.00;96369.81;5037366;28;20207;-79
2022/02/11 06:46:28;;;;;;;6.43;5.20;;;;;;;-0.09;100.00;96371.72;5037037;28;20207;-78
2022/02/11 06:48:53;;;;;;;5.97;4.47;;;;;;;-0.10;100.00;96382.84;5053434;28;20188;-79
2022/02/11 06:51:18;;;;;;;8.90;5.80;;;;;;;-0.12;100.00;96388.00;5052350;28;20212;-80
2022/02/11 06:53:44;;;;;;;6.77;5.50;;;;;;;-0.19;100.00;96383.22;5036946;28;20204;-78
2022/02/11 06:56:09;;;;;;;8.90;5.27;;;;;;;-0.21;100.00;96393.50;5035405;28;20188;-80
2022/02/11 06:58:35;;;;;;;6.93;5.03;;;;;;;-0.19;100.00;96390.88;5035656;28;20569;-80
2022/02/11 07:01:00;;;;;;;8.73;7.63;;;;;;;-0.25;100.00;96394.53;5052409;28;20205;-79
2022/02/11 07:03:25;;;;;;;6.63;5.90;;;;;;;-0.31;100.00;96410.06;5052301;28;20627;-77
2022/02/11 07:05:53;;;;;;;17.20;12.10;;;;;;;-0.28;100.00;96405.66;5053262;28;20239;-80
2022/02/11 07:08:19;;;;;;;9.87;7.40;;;;;;;-0.33;100.00;96410.13;5053897;28;20660;-79
2022/02/11 07:10:44;;;;;;;10.57;6.00;;;;;;;-0.27;100.00;96416.69;5052985;28;20214;-78
2022/02/11 07:13:13;;;;;;;12.30;7.03;;;;;;;-0.21;100.00;96425.84;5051979;28;20192;-78
2022/02/11 07:15:45;;;;;;;11.20;6.03;;;;;;;-0.21;100.00;96429.22;5053267;28;20250;-80
2022/02/11 07:18:11;;;;;;;10.10;6.60;;;;;;;-0.31;100.00;96443.25;5052553;28;20268;-79
2022/02/11 07:20:36;;;;;;;12.47;6.70;;;;;;;-0.25;100.00;96442.19;5035175;28;20265;-77
2022/02/11 07:23:02;;;;;;;7.13;4.10;;;;;;;-0.25;100.00;96453.22;5035035;28;20189;-78
2022/02/11 07:25:27;;;;;;;11.43;6.10;;;;;;;-0.15;100.00;96462.19;5032356;28;20181;-79
2022/02/11 07:27:52;;;;;;;6.13;4.70;;;;;;;0.06;100.00;96477.53;5034273;28;20185;-78
2022/02/11 07:30:20;;;;;;;7.10;5.80;;;;;;;0.27;98.88;96485.19;5038965;28;20227;-79
2022/02/11 07:32:46;;;;;;;7.73;5.87;;;;;;;0.39;98.70;96495.78;5052752;28;20180;-78
2022/02/11 07:35:11;;;;;;;12.10;5.47;;;;;;;0.35;97.53;96499.34;5035487;28;20208;-78
2022/02/11 07:37:37;;;;;;;6.80;5.43;;;;;;;0.54;96.95;96500.28;5052576;28;20192;-79
2022/02/11 07:40:03;;;;;;;11.53;6.27;;;;;;;0.55;96.70;96505.31;5051643;28;20569;-79
2022/02/11 07:42:33;;;;;;;6.87;4.00;;;;;;;0.60;96.31;96510.22;5052345;28;20268;-79
2022/02/11 07:44:58;;;;;;;6.87;4.50;;;;;;;0.68;95.56;96520.97;5052935;28;20181;-80
2022/02/11 07:47:26;;;;;;;7.43;4.10;;;;;;;0.78;94.67;96529.06;5036844;28;20227;-79
2022/02/11 07:49:52;;;;;;;6.67;3.80;;;;;;;0.84;94.04;96534.78;5052519;28;20189;-79
2022/02/11 07:52:17;;;;;;;6.43;3.80;;;;;;;0.93;93.61;96542.97;5031487;28;20190;-79
2022/02/11 07:54:44;;;;;;;5.13;3.77;;;;;;;0.69;94.21;96549.91;5032158;28;20208;-79
2022/02/11 07:57:10;;;;;;;5.70;4.00;;;;;;;0.79;94.22;96562.25;5035472;28;20534;-78
2022/02/11 07:59:35;;;;;;;7.40;3.87;;;;;;;0.65;94.49;96569.66;5053654;28;20228;-78
2022/02/11 08:02:00;;;;;;;8.57;4.23;;;;;;;0.58;95.41;96575.91;5052256;28;20200;-79
2022/02/11 08:04:25;;;;;;;7.70;4.27;;;;;;;0.53;95.29;96585.47;5036621;28;20177;-79
2022/02/11 08:06:51;;;;;;;7.80;3.83;;;;;;;0.56;95.34;96581.09;5051493;28;20200;-79
2022/02/11 08:09:16;;;;;;;9.77;6.93;;;;;;;0.51;95.31;96583.00;5052012;28;20219;-78
2022/02/11 08:11:42;;;;;;;6.73;3.93;;;;;;;0.53;94.17;96595.72;5022068;28;20695;-78
2022/02/11 08:14:07;;;;;;;9.60;4.87;;;;;;;0.54;93.34;96602.50;5048439;28;20210;-77
2022/02/11 08:16:33;;;;;;;10.33;4.70;;;;;;;0.27;93.02;96607.81;5051086;28;20185;-78
2022/02/11 08:18:58;;;;;;;8.07;4.93;;;;;;;0.30;94.06;96603.47;5036998;28;20696;-78
2022/02/11 08:21:24;;;;;;;8.97;5.23;;;;;;;0.33;93.24;96608.44;5051206;28;20205;-77
2022/02/11 08:23:50;;;;;;;7.80;5.00;;;;;;;0.41;93.02;96601.31;5050243;28;20666;-77
2022/02/11 08:26:15;;;;;;;6.73;5.07;;;;;;;0.43;92.51;96602.09;5049252;28;20726;-77
2022/02/11 08:28:41;;;;;;;13.77;4.83;;;;;;;0.43;91.46;96600.34;5032593;28;20193;-77
2022/02/11 08:31:06;;;;;;;8.93;4.63;;;;;;;0.25;91.88;96590.84;5049967;28;20705;-78
2022/02/11 08:33:31;;;;;;;8.10;4.53;;;;;;;0.07;92.23;96600.06;5050402;28;20196;-78
2022/02/11 08:35:57;;;;;;;9.27;4.70;;;;;;;0.49;91.51;96618.00;5052191;28;20293;-77
2022/02/11 08:38:23;;;;;;;9.13;4.93;;;;;;;0.36;91.25;96613.47;5050100;28;20276;-77
2022/02/11 08:40:50;;;;;;;6.83;4.43;;;;;;;0.21;92.29;96618.25;5050379;28;20573;-78
2022/02/11 08:43:16;;;;;;;6.10;4.23;;;;;;;0.22;92.58;96616.53;5033731;28;20195;-78
2022/02/11 08:45:41;;;;;;;5.20;4.30;;;;;;;0.33;92.49;96626.34;5051021;28;20179;-78
2022/02/11 08:48:08;;;;;;;9.63;4.40;;;;;;;0.46;92.25;96630.91;5053295;28;20231;-81
2022/02/11 08:50:34;;;;;;;9.97;4.17;;;;;;;0.34;90.80;96626.28;5033999;28;20687;-81
2022/02/11 08:52:59;;;;;;;9.50;4.30;;;;;;;0.49;91.08;96635.06;5015976;28;20189;-81
2022/02/11 08:55:25;;;;;;;6.63;4.00;;;;;;;0.49;90.79;96640.19;5052672;28;20212;-79
2022/02/11 08:57:52;;;;;;;4.43;3.67;;;;;;;0.53;90.78;96646.81;5051822;28;20206;-79
2022/02/11 09:00:21;;;;;;;11.80;4.57;;;;;;;0.87;90.84;96651.44;5051904;28;20228;-79
2022/02/11 09:02:46;;;;;;;6.33;3.90;;;;;;;0.94;88.97;96654.59;5035348;28;20224;-79
2022/02/11 09:05:12;;;;;;;7.93;4.43;;;;;;;1.29;88.40;96663.38;5052075;28;20208;-79
2022/02/11 09:07:37;;;;;;;7.53;3.70;;;;;;;1.63;87.18;96675.59;5036164;28;20261;-79
2022/02/11 09:10:07;;;;;;;5.43;3.63;;;;;;;1.77;86.22;96680.09;5051425;28;20228;-78
2022/02/11 09:12:33;;;;;;;6.57;3.90;;;;;;;2.07;86.10;96683.91;5051286;28;20268;-79
2022/02/11 09:14:58;;;;;;;7.00;3.47;;;;;;;2.23;84.30;96697.69;5051635;28;20298;-79
2022/02/11 09:17:24;;;;;;;9.87;4.00;;;;;;;2.59;84.88;96701.22;5050494;28;20190;-79
2022/02/11 09:19:51;;;;;;;7.90;3.77;;;;;;;2.57;81.40;96708.16;5037387;28;20178;-78
2022/02/11 09:22:17;;;;;;;11.43;3.03;;;;;;;2.68;81.01;96711.88;5019939;28;20570;-79
2022/02/11 09:24:42;;;;;;;7.33;3.03;;;;;;;2.74;79.08;96709.03;5041151;28;20219;-79
2022/02/11 09:27:08;;;;;;;6.43;2.93;;;;;;;2.82;77.80;96719.75;5055868;28;20187;-79
2022/02/11 09:29:33;;;;;;;6.97;2.77;;;;;;;2.72;77.62;96722.81;5039115;28;20189;-79
2022/02/11 09:31:58;;;;;;;6.57;2.70;;;;;;;3.09;76.59;96717.63;5038564;28;20204;-79
2022/02/11 09:34:24;;;;;;;8.43;2.80;;;;;;;3.12;76.44;96730.31;5054611;28;20665;-79
2022/02/11 09:36:49;;;;;;;6.93;3.00;;;;;;;3.05;75.51;96735.81;5029449;28;20183;-79
2022/02/11 09:39:15;;;;;;;6.77;2.83;;;;;;;3.19;76.37;96733.41;5038301;28;20804;-79
2022/02/11 09:41:40;;;;;;;7.07;3.10;;;;;;;3.13;76.17;96738.84;5037477;28;20695;-78
2022/02/11 09:44:06;;;;;;;6.17;2.60;;;;;;;2.94;76.64;96749.16;5037473;28;20179;-78
2022/02/11 09:46:34;;;;;;;8.17;2.77;;;;;;;2.74;76.55;96756.91;5037741;28;20205;-79
2022/02/11 09:49:00;;;;;;;7.80;3.30;;;;;;;2.10;77.15;96750.38;5034248;28;20185;-79
2022/02/11 09:51:26;;;;;;;9.20;3.13;;;;;;;2.17;79.60;96756.06;5037056;28;20218;-78
2022/02/11 09:53:51;;;;;;;5.90;2.70;;;;;;;2.36;79.13;96756.91;5037990;28;20189;-79
2022/02/11 09:56:17;;;;;;;8.50;3.47;;;;;;;2.61;78.83;96756.66;5037834;28;20174;-79
2022/02/11 09:58:46;;;;;;;6.33;3.10;;;;;;;2.57;78.85;96764.56;5053817;28;20239;-78
2022/02/11 10:01:12;;;;;;;7.10;2.93;;;;;;;2.46;78.55;96758.16;5052683;28;20232;-77
2022/02/11 10:03:37;;;;;;;6.33;3.30;;;;;;;2.42;79.95;96761.78;5037278;28;20609;-77
2022/02/11 10:06:05;;;;;;;4.80;3.27;;;;;;;2.37;79.59;96761.13;5033690;28;20644;-78
2022/02/11 10:08:32;;;;;;;6.83;3.40;;;;;;;2.49;80.19;96765.75;5037665;28;20178;-77
2022/02/11 10:11:00;;;;;;;8.50;3.17;;;;;;;2.32;80.09;96772.53;5054918;28;20252;-79
2022/02/11 10:13:33;;;;;;;5.93;4.10;;;;;;;2.59;80.31;96773.03;5054585;28;20597;-79
2022/02/11 10:16:09;;;;;;;7.07;3.30;;;;;;;2.33;78.82;96782.69;5035937;28;20575;-79
2022/02/11 10:18:48;;;;;;;6.73;3.70;;;;;;;2.15;81.76;96786.91;5054307;28;20181;-78
2022/02/11 10:21:20;;;;;;;6.73;3.33;;;;;;;2.06;81.08;96791.59;5053882;28;20209;-79
2022/02/11 10:23:46;;;;;;;8.07;3.90;;;;;;;1.89;81.88;96790.56;5044848;28;20179;-80
2022/02/11 10:26:16;;;;;;;19.80;10.83;;;;;;;2.10;81.48;96793.09;5026618;28;20186;-80
2022/02/11 10:28:48;;;;;;;7.57;4.60;;;;;;;2.23;81.08;96802.78;5055287;28;20184;-80
2022/02/11 10:31:20;;;;;;;8.87;3.93;;;;;;;2.07;80.63;96808.63;5054431;28;20224;-79
2022/02/11 10:33:51;;;;;;;7.90;3.97;;;;;;;2.30;81.67;96810.19;5048466;28;20182;-81
2022/02/11 10:36:19;;;;;;;10.63;5.23;;;;;;;2.52;81.42;96809.19;5054624;28;20240;-79
2022/02/11 10:38:45;;;;;;;5.60;4.20;;;;;;;2.55;81.19;96821.88;5052279;28;20209;-81
2022/02/11 10:41:10;;;;;;;8.50;4.33;;;;;;;2.43;79.99;96821.56;5018305;28;20237;-80
2022/02/11 10:43:35;;;;;;;7.10;4.10;;;;;;;2.47;81.09;96816.25;5053386;28;20298;-80
2022/02/11 10:46:04;;;;;;;6.87;4.63;;;;;;;2.78;80.04;96814.88;5034017;28;20186;-79
2022/02/11 10:48:34;;;;;;;8.63;4.50;;;;;;;2.77;79.79;96820.91;5034847;28;20269;-79
2022/02/11 10:51:01;;;;;;;10.27;4.40;;;;;;;2.84;78.47;96805.19;5033830;28;20297;-80
2022/02/11 10:53:34;;;;;;;8.90;4.23;;;;;;;3.18;78.14;96808.78;5043330;28;20260;-79
2022/02/11 10:56:01;;;;;;;7.87;3.83;;;;;;;3.38;78.43;96813.78;5035821;28;20216;-80
2022/02/11 10:58:28;;;;;;;18.80;4.40;;;;;;;3.51;76.16;96801.19;5053385;28;20209;-77
2022/02/11 11:00:56;;;;;;;6.37;3.70;;;;;;;3.58;75.62;96806.88;5052828;28;20276;-79
2022/02/11 11:03:22;;;;;;;7.13;3.73;;;;;;;3.35;74.44;96813.91;5044593;28;20179;-79
2022/02/11 11:05:47;;;;;;;7.10;3.10;;;;;;;3.16;75.06;96820.00;5036561;28;20201;-78
2022/02/11 11:08:14;;;;;;;8.60;4.50;;;;;;;3.10;76.55;96827.09;5053443;28;20209;-80
2022/02/11 11:10:46;;;;;;;11.70;4.30;;;;;;;3.01;77.31;96824.94;5052750;28;20197;-79
2022/02/11 11:13:14;;;;;;;9.13;4.87;;;;;;;3.00;76.80;96823.25;5035868;28;20189;-79
2022/02/11 11:15:41;;;;;;;16.53;4.30;;;;;;;2.86;78.07;96824.81;5031591;28;20715;-79
2022/02/11 11:18:09;;;;;;;8.63;5.10;;;;;;;2.82;77.61;96822.38;5022322;28;20888;-79
2022/02/11 11:20:35;;;;;;;9.83;4.40;;;;;;;2.73;77.83;96832.22;5036480;28;20215;-79
2022/02/11 11:23:04;;;;;;;7.90;4.60;;;;;;;2.75;77.66;96823.56;5051011;28;20182;-80
2022/02/11 11:25:48;;;;;;;9.40;5.07;;;;;;;2.76;77.65;96829.53;5031436;28;20178;-80
2022/02/11 11:28:39;;;;;;;6.77;4.20;;;;;;;2.29;79.01;96819.59;5067425;28;20181;-80
2022/02/11 11:31:22;;;;;;;7.90;4.10;;;;;;;2.12;80.83;96824.63;5048798;28;20206;-80
2022/02/11 11:33:47;;;;;;;6.10;4.30;;;;;;;2.34;80.66;96824.53;5016903;28;20188;-78
2022/02/11 11:36:15;;;;;;;9.37;4.30;;;;;;;2.24;80.37;96824.13;5032346;28;20656;-80
2022/02/11 11:38:49;;;;;;;9.03;4.20;;;;;;;2.47;80.64;96825.66;5042268;28;20186;-80
2022/02/11 11:41:18;;;;;;;7.47;3.77;;;;;;;2.41;81.37;96834.47;5034430;28;20256;-80
2022/02/11 11:43:45;;;;;;;8.03;3.73;;;;;;;2.77;79.91;96832.00;5051130;28;20261;-80
2022/02/11 11:46:16;;;;;;;4.90;2.90;;;;;;;2.57;78.56;96821.00;5052357;28;20193;-79
2022/02/11 11:49:09;;;;;;;4.23;3.50;;;;;;;2.71;78.74;96826.31;5051570;28;20185;-79
2022/02/11 11:51:34;;;;;;;10.03;3.73;;;;;;;2.50;78.97;96818.69;5021784;28;20276;-79
2022/02/11 11:54:15;;;;;;;6.83;3.80;;;;;;;2.37;80.33;96824.41;5048973;28;20194;-80
2022/02/11 11:56:42;;;;;;;5.77;3.57;;;;;;;2.35;80.92;96821.91;5051686;28;20185;-80
2022/02/11 11:59:21;;;;;;;7.80;3.97;;;;;;;2.42;79.85;96820.75;5032925;28;20213;-77
2022/02/11 12:01:58;;;;;;;4.97;3.33;;;;;;;2.52;79.35;96819.44;5022376;28;20209;-76
2022/02/11 12:04:49;;;;;;;7.60;3.50;;;;;;;2.69;78.22;96825.56;5050010;28;20185;-77
2022/02/11 12:07:20;;;;;;;8.00;3.60;;;;;;;2.80;78.09;96823.34;5052594;28;20178;-78
2022/02/11 12:09:49;;;;;;;7.13;3.30;;;;;;;2.61;77.84;96819.94;5033199;28;20186;-78
2022/02/11 12:12:18;;;;;;;5.30;3.67;;;;;;;2.61;77.38;96832.75;5035010;28;20201;-79
2022/02/11 12:14:43;;;;;;;9.50;4.43;;;;;;;2.61;78.16;96827.63;5031679;28;20209;-78
2022/02/11 12:17:10;;;;;;;10.23;5.27;;;;;;;2.68;78.09;96817.03;5015244;28;20266;-77
2022/02/11 12:19:37;;;;;;;8.57;4.10;;;;;;;2.47;78.58;96818.84;5049155;28;20643;-79
2022/02/11 12:22:06;;;;;;;6.93;4.43;;;;;;;2.82;78.00;96821.53;5018590;28;20202;-78
2022/02/11 12:27:30;;;;;;;8.90;3.50;;;;;;;2.75;78.62;96825.28;5049569;28;20201;-77
2022/02/11 12:30:05;;;;;;;5.17;3.40;;;;;;;2.71;78.14;96818.63;5037207;28;20178;-79
2022/02/11 12:32:45;;;;;;;5.87;3.57;;;;;;;3.03;78.11;96832.56;5050862;28;20186;-79
2022/02/11 12:35:28;;;;;;;10.10;4.13;;;;;;;2.97;79.61;96825.97;5051141;28;20205;-78
2022/02/11 12:37:56;;;;;;;5.57;4.10;;;;;;;2.89;80.05;96828.06;5035270;28;20578;-78
2022/02/11 12:40:25;;;;;;;5.00;3.50;;;;;;;3.02;78.87;96831.75;5052184;28;20662;-78
2022/02/11 12:42:52;;;;;;;7.93;3.77;;;;;;;2.90;78.99;96832.28;5051145;28;20185;-78
2022/02/11 12:45:24;;;;;;;13.60;3.63;;;;;;;3.18;77.66;96825.88;5051763;28;20179;-79
2022/02/11 12:47:51;;;;;;;4.60;2.50;;;;;;;2.87;77.09;96836.72;5051755;28;20598;-78
2022/02/11 12:50:27;;;;;;;5.70;2.93;;;;;;;3.15;77.18;96836.31;5052216;28;20202;-78
2022/02/11 12:52:53;;;;;;;6.83;3.30;;;;;;;3.37;76.03;96842.13;5051971;28;20181;-79
2022/02/11 12:55:20;;;;;;;4.30;3.10;;;;;;;3.28;75.38;96835.69;5055755;28;20543;-79
2022/02/11 12:57:58;;;;;;;3.37;2.43;;;;;;;3.20;76.12;96835.19;5039904;28;20224;-79
2022/02/11 13:00:25;;;;;;;6.80;3.63;;;;;;;3.36;76.44;96830.19;5036012;28;20209;-80
2022/02/11 13:02:55;;;;;;;7.67;4.03;;;;;;;3.18;75.19;96834.44;5018428;28;20190;-79
2022/02/11 13:05:24;;;;;;;12.07;5.50;;;;;;;3.36;75.98;96822.47;5032888;28;20178;-80
2022/02/11 13:07:51;;;;;;;12.53;5.03;;;;;;;3.10;77.38;96827.09;5054289;28;20184;-79
2022/02/11 13:10:19;;;;;;;13.33;4.57;;;;;;;3.10;77.10;96821.13;5041138;28;20690;-79
2022/02/11 13:12:45;;;;;;;11.47;4.70;;;;;;;3.04;77.42;96826.53;5042501;28;20668;-79
2022/02/11 13:15:13;;;;;;;7.40;4.30;;;;;;;2.94;77.31;96823.56;5058049;28;20210;-79
2022/02/11 13:17:38;;;;;;;11.50;4.90;;;;;;;2.96;78.80;96824.31;5039298;28;20193;-78
2022/02/11 13:20:08;;;;;;;7.77;3.43;;;;;;;2.73;78.57;96824.50;5023584;28;20203;-79
2022/02/11 13:22:34;;;;;;;6.77;4.33;;;;;;;2.48;79.29;96823.06;5036539;28;20213;-79
2022/02/11 13:24:59;;;;;;;9.00;3.70;;;;;;;2.51;79.77;96816.94;5042520;28;20206;-79
2022/02/11 13:27:48;;;;;;;7.33;3.63;;;;;;;2.49;79.67;96816.19;5056703;28;20182;-79
2022/02/11 13:30:21;;;;;;;7.17;3.70;;;;;;;2.62;80.08;96819.88;5033059;28;20202;-79
2022/02/11 13:32:47;;;;;;;10.07;3.27;;;;;;;2.70;80.18;96825.50;5045490;28;20269;-79
2022/02/11 13:35:12;;;;;;;9.10;3.97;;;;;;;2.53;80.71;96826.22;5040580;28;20209;-79
2022/02/11 13:37:49;;;;;;;7.53;3.70;;;;;;;2.51;79.12;96828.03;5050275;28;20829;-78
2022/02/11 13:40:15;;;;;;;9.10;3.40;;;;;;;2.53;79.41;96833.09;5016473;28;20206;-79
2022/02/11 13:42:41;;;;;;;5.07;3.53;;;;;;;2.30;80.69;96834.09;5022954;28;20213;-79
2022/02/11 13:45:08;;;;;;;8.43;3.70;;;;;;;2.46;79.34;96840.22;5052211;28;20297;-78
2022/02/11 13:47:33;;;;;;;7.30;4.03;;;;;;;2.34;79.85;96837.34;5046857;28;20182;-78
2022/02/11 13:50:06;;;;;;;5.70;3.93;;;;;;;2.37;80.42;96845.75;5050662;28;20206;-78
2022/02/11 13:55:16;;;;;;;7.47;4.00;;;;;;;1.96;81.98;96861.16;5053004;28;20291;-78
2022/02/11 13:57:42;;;;;;;7.20;3.87;;;;;;;2.19;81.17;96862.72;5053193;28;20181;-80
2022/02/11 14:00:26;;;;;;;8.23;3.93;;;;;;;2.17;81.03;96853.44;5035959;28;21040;-79
2022/02/11 14:02:52;;;;;;;6.17;3.10;;;;;;;2.21;80.10;96865.25;5055228;28;20691;-80
2022/02/11 14:05:18;;;;;;;29.90;4.50;;;;;;;2.21;79.26;96855.00;5033535;28;20288;-79
2022/02/11 14:07:53;;;;;;;9.70;3.77;;;;;;;2.15;79.03;96852.69;5042501;28;20178;-79
2022/02/11 14:10:18;;;;;;;7.57;3.13;;;;;;;2.21;78.67;96840.47;5033951;28;20301;-79
2022/02/11 14:12:43;;;;;;;8.47;3.10;;;;;;;2.35;77.93;96842.41;5035115;28;20186;-79
2022/02/11 14:15:09;;;;;;;8.40;3.63;;;;;;;2.43;77.09;96842.09;5037450;28;20220;-79
2022/02/11 14:17:34;;;;;;;10.00;3.70;;;;;;;2.35;74.44;96839.84;5053702;28;20190;-79
2022/02/11 14:20:03;;;;;;;4.83;2.53;;;;;;;2.31;75.14;96837.50;5054051;28;20202;-79
2022/02/11 14:22:30;;;;;;;6.60;2.50;;;;;;;2.39;75.61;96833.72;5053120;28;20651;-80
2022/02/11 14:24:55;;;;;;;4.00;2.77;;;;;;;2.49;75.19;96823.88;5055490;28;20268;-80
2022/02/11 14:27:20;;;;;;;7.67;3.50;;;;;;;2.48;76.41;96832.47;5053097;28;20625;-79
2022/02/11 14:29:46;;;;;;;5.37;3.10;;;;;;;2.37;75.43;96827.78;5053677;28;20182;-79
2022/02/11 14:32:11;;;;;;;9.63;2.80;;;;;;;2.30;74.69;96834.09;5052652;28;20261;-80
2022/02/11 14:34:37;;;;;;;7.13;3.33;;;;;;;2.45;74.75;96833.44;5036654;28;20724;-80
2022/02/11 14:37:03;;;;;;;6.67;2.50;;;;;;;2.35;73.56;96842.41;5036381;28;20562;-80
2022/02/11 14:39:29;;;;;;;6.67;2.80;;;;;;;2.39;74.58;96843.13;5035965;28;20280;-80
2022/02/11 14:41:57;;;;;;;5.70;2.80;;;;;;;2.30;74.70;96836.69;5035719;28;20202;-79
2022/02/11 14:44:25;;;;;;;5.03;2.60;;;;;;;2.24;73.74;96842.06;5036830;28;20188;-79
2022/02/11 14:46:55;;;;;;;7.03;2.90;;;;;;;2.34;72.86;96851.00;5036110;28;20282;-79
2022/02/11 14:49:21;;;;;;;6.73;3.13;;;;;;;2.40;73.85;96849.94;5034205;28;20601;-79
2022/02/11 14:51:49;;;;;;;7.30;3.00;;;;;;;2.38;74.00;96851.69;5032311;28;20214;-79
2022/02/11 14:54:14;;;;;;;9.57;3.53;;;;;;;2.32;74.41;96852.81;5042951;28;20236;-80
2022/02/11 14:56:41;;;;;;;7.00;2.83;;;;;;;2.40;75.25;96847.38;5045591;28;20178;-80
2022/02/11 14:59:08;;;;;;;6.57;3.00;;;;;;;2.34;74.96;96855.31;5052135;28;20252;-79
2022/02/11 15:01:34;;;;;;;9.77;2.93;;;;;;;2.43;74.82;96863.44;5035842;28;20738;-79
2022/02/11 15:03:59;;;;;;;8.43;2.70;;;;;;;2.35;75.85;96860.38;5035581;28;20232;-80
2022/02/11 15:06:24;;;;;;;8.73;3.23;;;;;;;2.34;76.58;96857.88;5053241;28;20223;-80
2022/02/11 15:08:50;;;;;;;7.97;3.23;;;;;;;2.24;75.28;96855.69;5032322;28;20202;-80
2022/02/11 15:11:17;;;;;;;5.57;2.70;;;;;;;2.31;74.60;96856.28;5046525;28;20289;-79
2022/02/11 15:13:42;;;;;;;9.73;3.30;;;;;;;2.24;74.09;96857.44;5036653;28;20276;-80